Terminal Aerodrome Forecast
Issued by NWS Sterling, VA

Home | Current Version | Previous Version | Text Only | Print | Product List | Glossary On
Versions: 1 2 3 4 5 6 7 8 9 10 11 12 13 14 15 16 17 18 19 20
000
FTUS41 KLWX 312300 RRA
TAFCHO
TAF
KCHO 312345Z 0100/0124 07004KT P6SM OVC060
     FM011100 01005KT P6SM OVC025
     FM011400 01008KT P6SM OVC015
     FM011500 01010KT 3SM -SHRA OVC015
     FM011800 36013KT 6SM -SHRA OVC025
     FM012100 36013KT P6SM OVC025=

USA.gov is the U.S. government's official web portal to all federal, state and local government web resources and services.